McGregor, Texas
Current Conditions -  °F | °C
As of 7:15 AM on Friday 24 Oct 2014 (Local Time) from KPWG Reporting Station
Clear Clear  
Wind Chill: 59°   Ceiling: Unl
Heat Index: 59°   Visibility: 10mi
Dew Point: 50°   Wind: 0mph
Humidity: 72%   Direction: NA
Pressure: 30.15"   Gusts: NA
Location:  31.44°N, 97.41°W
Report Text: KPWG 241215Z AUTO 00000KT 10SM CLR 15/10 A3015 RMK AO1
Loading
Personal Weather Stations






























Interactive Weather Map
Tropical Storm Tracking
New forecast layout! Learn more

10-Day Weather Forecast

Advertisements
Track Severe Weather on mobile